Time;durP1;ratioP1;P1;durP2;ratioP2;P2;SDS_P1;SDS_P2;PMS_P1;PMS_P2;Temp;Humidity;BMP_temperature;BMP_pressure;BME280_temperature;BME280_humidity;BME280_pressure;Samples;Min_cycle;Max_cycle;Signal;HPM_P1;HPM_P2
2024/01/14 00:00:47;;;;;;;39.08;16.15;;;;;;;0.31;84.32;98234.41;4239172;27;20207;-81
2024/01/14 00:02:50;;;;;;;44.88;17.98;;;;;;;0.29;84.42;98231.03;4255973;27;20203;-81
2024/01/14 00:04:53;;;;;;;40.13;15.85;;;;;;;0.30;84.42;98242.13;4240164;27;20256;-82
2024/01/14 00:06:56;;;;;;;40.28;16.98;;;;;;;0.32;84.92;98235.25;4231589;27;20206;-81
2024/01/14 00:08:59;;;;;;;40.97;16.05;;;;;;;0.24;83.58;98226.91;4239449;27;20242;-82
2024/01/14 00:11:03;;;;;;;43.00;16.60;;;;;;;0.16;83.81;98224.53;4233946;27;20238;-81
2024/01/14 00:13:06;;;;;;;40.08;15.85;;;;;;;0.19;83.76;98214.19;4250259;27;20242;-81
2024/01/14 00:15:11;;;;;;;36.60;14.95;;;;;;;0.19;83.70;98209.06;4237969;27;20260;-81
2024/01/14 00:17:17;;;;;;;46.58;17.73;;;;;;;0.15;83.70;98204.06;4256955;27;20299;-80
2024/01/14 00:19:21;;;;;;;41.38;17.38;;;;;;;0.16;83.93;98204.03;4242131;27;20211;-81
2024/01/14 00:21:24;;;;;;;39.80;16.73;;;;;;;0.23;83.57;98199.59;4234445;27;20319;-82
2024/01/14 00:23:27;;;;;;;35.30;14.45;;;;;;;0.22;83.69;98200.47;4238452;27;20227;-81
2024/01/14 00:25:30;;;;;;;42.42;17.40;;;;;;;0.18;83.29;98198.88;4224391;27;20213;-81
2024/01/14 00:27:33;;;;;;;38.50;15.75;;;;;;;0.23;83.58;98197.88;4252504;27;20294;-81
2024/01/14 00:29:37;;;;;;;41.83;16.30;;;;;;;0.14;83.02;98185.28;4240588;27;20211;-80
2024/01/14 00:31:40;;;;;;;47.72;17.27;;;;;;;0.10;83.16;98188.81;4236307;27;20214;-81
2024/01/14 00:33:45;;;;;;;47.05;16.20;;;;;;;0.12;83.67;98181.94;4254944;27;20324;-80
2024/01/14 00:35:48;;;;;;;36.55;14.73;;;;;;;0.07;83.19;98182.94;4254056;27;20235;-81
2024/01/14 00:37:52;;;;;;;36.90;15.95;;;;;;;-0.04;83.29;98174.69;4236253;27;20207;-80
2024/01/14 00:39:56;;;;;;;40.78;16.60;;;;;;;0.00;83.69;98161.75;4242216;27;20692;-80
2024/01/14 00:41:58;;;;;;;42.42;16.38;;;;;;;-0.02;83.10;98164.41;4237431;27;20648;-79
2024/01/14 00:44:02;;;;;;;43.30;16.02;;;;;;;-0.06;83.66;98168.78;4236821;27;20569;-81
2024/01/14 00:46:05;;;;;;;40.17;16.80;;;;;;;-0.03;83.68;98163.56;4218720;27;20195;-80
2024/01/14 00:48:08;;;;;;;39.85;15.57;;;;;;;-0.04;83.95;98154.19;4238586;27;20224;-81
2024/01/14 00:50:12;;;;;;;45.80;16.48;;;;;;;-0.05;83.93;98149.09;4253200;27;20218;-81
2024/01/14 00:52:15;;;;;;;44.47;17.15;;;;;;;-0.07;83.93;98148.31;4215245;28;20325;-81
2024/01/14 00:54:18;;;;;;;39.95;15.63;;;;;;;-0.17;83.97;98145.13;4238331;27;20204;-81
2024/01/14 00:56:22;;;;;;;40.03;16.30;;;;;;;-0.12;83.66;98130.50;4234323;27;20211;-81
2024/01/14 00:58:25;;;;;;;39.40;14.98;;;;;;;-0.17;83.16;98136.59;4255676;27;20227;-81
2024/01/14 01:00:27;;;;;;;39.92;16.98;;;;;;;-0.14;83.23;98133.97;4251625;27;20196;-81
2024/01/14 01:02:30;;;;;;;35.70;15.85;;;;;;;-0.14;83.48;98133.97;4235906;27;20222;-81
2024/01/14 01:04:33;;;;;;;36.55;15.35;;;;;;;-0.11;83.23;98132.16;4236606;27;20207;-80
2024/01/14 01:06:38;;;;;;;32.78;14.07;;;;;;;-0.07;83.63;98132.94;4243381;27;20296;-81
2024/01/14 01:08:41;;;;;;;41.53;15.23;;;;;;;-0.10;83.26;98127.91;4254470;27;20226;-81
2024/01/14 01:10:45;;;;;;;40.75;16.30;;;;;;;-0.06;83.57;98132.03;4252726;27;20223;-80
2024/01/14 01:12:48;;;;;;;41.35;16.77;;;;;;;-0.04;83.23;98135.44;4238910;27;20207;-80
2024/01/14 01:14:50;;;;;;;42.92;17.15;;;;;;;0.01;83.52;98126.72;4229793;27;20265;-81
2024/01/14 01:16:53;;;;;;;39.35;16.35;;;;;;;0.03;82.91;98133.50;4235478;27;20232;-81
2024/01/14 01:18:56;;;;;;;40.97;18.42;;;;;;;0.05;83.21;98125.75;4238506;27;20283;-80
2024/01/14 01:21:00;;;;;;;40.97;18.20;;;;;;;0.09;83.02;98119.66;4250750;27;20219;-81
2024/01/14 01:23:07;;;;;;;39.80;15.90;;;;;;;0.09;82.81;98109.41;4257206;27;20298;-82
2024/01/14 01:25:11;;;;;;;37.58;16.02;;;;;;;0.06;82.61;98106.91;4230530;27;20300;-80
2024/01/14 01:27:14;;;;;;;34.75;15.90;;;;;;;0.06;82.64;98110.34;4239548;27;20199;-80
2024/01/14 01:29:18;;;;;;;29.15;14.30;;;;;;;0.08;82.35;98105.19;4244467;27;20696;-81
2024/01/14 01:31:21;;;;;;;36.00;16.13;;;;;;;0.10;82.53;98111.09;4238902;27;20257;-80
2024/01/14 01:33:37;;;;;;;32.70;13.85;;;;;;;0.16;82.28;98111.75;4227189;27;20207;-78
2024/01/14 01:35:40;;;;;;;37.15;14.68;;;;;;;0.11;81.87;98095.66;4237019;27;20203;-77
2024/01/14 01:37:43;;;;;;;34.72;14.80;;;;;;;0.09;82.08;98094.03;4254301;27;20214;-79
2024/01/14 01:39:48;;;;;;;33.70;15.07;;;;;;;0.06;81.92;98082.16;4240264;27;20210;-79
2024/01/14 01:41:51;;;;;;;33.63;14.00;;;;;;;0.06;81.66;98083.84;4239654;27;20336;-83
2024/01/14 01:43:55;;;;;;;33.90;14.40;;;;;;;0.11;81.37;98092.28;4216830;28;20196;-81
2024/01/14 01:45:58;;;;;;;33.92;14.77;;;;;;;0.18;80.96;98083.53;4251932;27;20194;-82
2024/01/14 01:48:01;;;;;;;34.53;15.90;;;;;;;0.17;81.36;98077.56;4249076;27;20199;-84
2024/01/14 01:50:04;;;;;;;34.63;14.85;;;;;;;0.21;81.72;98089.44;4254818;27;20612;-82
2024/01/14 01:52:08;;;;;;;35.83;15.65;;;;;;;0.20;81.30;98079.22;4237511;27;20730;-82
2024/01/14 01:54:11;;;;;;;41.28;16.45;;;;;;;0.17;81.59;98076.72;4250794;27;20202;-81
2024/01/14 01:56:16;;;;;;;36.60;15.27;;;;;;;0.16;81.70;98070.75;4233442;27;20196;-82
2024/01/14 01:58:18;;;;;;;33.40;14.23;;;;;;;0.13;81.42;98072.56;4235084;27;20235;-83
2024/01/14 02:00:22;;;;;;;39.05;16.33;;;;;;;0.18;81.74;98075.81;4236162;27;20519;-82
2024/01/14 02:02:26;;;;;;;38.17;15.27;;;;;;;0.18;81.17;98069.00;4259191;27;20771;-83
2024/01/14 02:04:29;;;;;;;35.15;15.38;;;;;;;0.16;81.46;98067.34;4235938;27;20221;-81
2024/01/14 02:06:34;;;;;;;34.80;14.55;;;;;;;0.08;82.26;98067.56;4237571;27;20199;-82
2024/01/14 02:08:38;;;;;;;37.10;14.00;;;;;;;0.13;81.23;98063.13;4246258;27;20475;-82
2024/01/14 02:10:40;;;;;;;26.08;12.77;;;;;;;0.13;81.20;98057.19;4248520;27;20702;-83
2024/01/14 02:12:45;;;;;;;27.65;12.88;;;;;;;0.14;81.54;98056.31;4226181;28;20291;-83
2024/01/14 02:14:48;;;;;;;33.40;15.82;;;;;;;0.17;81.09;98066.47;4235138;27;20260;-83
2024/01/14 02:16:53;;;;;;;36.05;14.88;;;;;;;0.18;81.38;98066.44;4244539;27;20808;-82
2024/01/14 02:18:56;;;;;;;33.42;15.00;;;;;;;0.17;81.82;98058.78;4250391;27;20689;-82
2024/01/14 02:21:00;;;;;;;36.97;15.52;;;;;;;0.18;81.47;98058.75;4240042;27;20708;-83
2024/01/14 02:23:07;;;;;;;38.90;16.83;;;;;;;0.18;81.90;98051.06;4227057;28;20673;-82
2024/01/14 02:25:11;;;;;;;40.30;16.13;;;;;;;0.17;81.77;98053.66;4220263;27;20266;-83
2024/01/14 02:27:15;;;;;;;39.33;14.27;;;;;;;0.15;82.48;98046.03;4252939;27;20199;-82
2024/01/14 02:29:19;;;;;;;37.97;16.27;;;;;;;0.18;82.42;98048.50;4225980;28;20216;-82
2024/01/14 02:31:22;;;;;;;37.45;16.42;;;;;;;0.16;82.38;98037.44;4232552;27;20267;-82
2024/01/14 02:33:28;;;;;;;37.33;15.43;;;;;;;0.17;82.04;98040.84;4222480;28;20296;-83
2024/01/14 02:35:31;;;;;;;38.50;16.48;;;;;;;0.16;81.87;98036.59;4256357;27;20210;-83
2024/01/14 02:37:34;;;;;;;43.28;16.95;;;;;;;0.17;81.71;98025.47;4234359;27;20299;-82
2024/01/14 02:39:38;;;;;;;41.25;16.08;;;;;;;0.19;81.44;98032.22;4237446;27;20203;-83
2024/01/14 02:41:42;;;;;;;43.90;16.92;;;;;;;0.17;81.82;98025.47;4233306;27;20199;-83
2024/01/14 02:43:44;;;;;;;39.00;16.17;;;;;;;0.13;81.93;98040.06;4257645;27;20206;-83
2024/01/14 02:45:48;;;;;;;39.22;16.15;;;;;;;0.15;81.84;98037.47;4227749;28;20319;-83
2024/01/14 02:47:51;;;;;;;43.00;15.98;;;;;;;0.16;82.29;98036.59;4229651;27;20598;-82
2024/01/14 02:49:55;;;;;;;30.15;13.70;;;;;;;0.16;81.23;98039.16;4252667;27;21146;-82
2024/01/14 02:51:58;;;;;;;34.28;15.20;;;;;;;0.14;81.09;98033.25;4221753;28;20250;-78
2024/01/14 02:54:02;;;;;;;39.15;15.20;;;;;;;0.10;81.13;98037.59;4238577;27;20215;-78
2024/01/14 02:56:06;;;;;;;37.35;14.02;;;;;;;0.13;80.75;98037.50;4249098;27;20203;-78
2024/01/14 02:58:11;;;;;;;36.65;15.57;;;;;;;0.14;80.87;98025.56;4240385;27;20282;-79
2024/01/14 03:00:16;;;;;;;37.78;16.90;;;;;;;0.12;81.25;98027.31;4238767;27;20224;-78
2024/01/14 03:02:20;;;;;;;41.10;15.85;;;;;;;0.16;81.44;98022.03;4216330;28;20204;-78
2024/01/14 03:04:22;;;;;;;43.85;16.13;;;;;;;0.12;81.39;98017.06;4234446;27;20242;-78
2024/01/14 03:06:26;;;;;;;44.97;16.83;;;;;;;0.13;81.17;98023.88;4254821;27;20238;-78
2024/01/14 03:08:30;;;;;;;38.58;16.02;;;;;;;0.12;81.79;98035.00;4247774;27;20230;-78
2024/01/14 03:10:33;;;;;;;39.20;15.85;;;;;;;0.14;81.74;98025.56;4221774;28;20282;-78
2024/01/14 03:12:36;;;;;;;44.53;15.95;;;;;;;0.13;82.05;98018.75;4239937;27;20250;-78
2024/01/14 03:14:42;;;;;;;43.17;16.92;;;;;;;0.13;81.96;98027.25;4238044;27;20202;-78
2024/01/14 03:16:45;;;;;;;39.55;15.65;;;;;;;0.16;82.29;98023.78;4236778;27;20328;-78
2024/01/14 03:18:49;;;;;;;45.15;18.20;;;;;;;0.17;82.14;98023.75;4234426;27;20203;-79
2024/01/14 03:20:53;;;;;;;50.55;17.65;;;;;;;0.19;82.98;98014.28;4238956;27;20368;-78
2024/01/14 03:22:57;;;;;;;50.45;18.25;;;;;;;0.17;82.65;98017.78;4241118;27;20206;-78
2024/01/14 03:24:59;;;;;;;45.08;17.33;;;;;;;0.16;82.52;98016.91;4255486;27;20200;-78
2024/01/14 03:27:04;;;;;;;49.30;18.63;;;;;;;0.13;82.78;98019.56;4247471;27;20213;-79
2024/01/14 03:29:07;;;;;;;45.35;17.63;;;;;;;0.16;82.46;98008.41;4240271;27;20248;-79
2024/01/14 03:31:15;;;;;;;44.42;18.10;;;;;;;0.14;82.45;98007.63;4237491;27;20202;-78
2024/01/14 03:33:19;;;;;;;42.67;16.67;;;;;;;0.18;82.83;98011.75;4233235;27;20203;-78
2024/01/14 03:35:23;;;;;;;43.60;17.67;;;;;;;0.20;82.44;98010.00;4234549;27;20663;-78
2024/01/14 03:37:26;;;;;;;41.22;17.80;;;;;;;0.19;81.92;98018.56;4224699;27;20766;-79
2024/01/14 03:39:29;;;;;;;50.00;17.95;;;;;;;0.14;82.57;98011.00;4245167;27;20244;-78
2024/01/14 03:41:33;;;;;;;53.28;19.05;;;;;;;0.07;81.92;98019.75;4253511;27;20332;-78
2024/01/14 03:43:37;;;;;;;44.08;16.60;;;;;;;0.05;82.33;98013.00;4257145;27;20294;-79
2024/01/14 03:45:40;;;;;;;40.22;16.88;;;;;;;0.06;82.13;98017.22;4222738;27;20211;-78
2024/01/14 03:47:45;;;;;;;43.30;17.52;;;;;;;0.07;81.74;98018.91;4238416;27;20702;-78
2024/01/14 03:49:49;;;;;;;42.90;17.60;;;;;;;0.06;82.46;98020.66;4235758;27;20806;-78
2024/01/14 03:51:53;;;;;;;39.55;16.83;;;;;;;0.07;82.31;98019.75;4257203;27;20592;-77
2024/01/14 03:53:57;;;;;;;38.20;16.08;;;;;;;0.06;81.88;98027.47;4240092;27;20207;-79
2024/01/14 03:56:00;;;;;;;40.10;16.73;;;;;;;0.07;82.18;98027.44;4226069;27;20250;-78
2024/01/14 03:58:04;;;;;;;44.13;15.57;;;;;;;0.06;81.92;98025.78;4226425;27;20634;-79
2024/01/14 04:00:10;;;;;;;43.50;15.82;;;;;;;0.05;82.27;98011.28;4239462;27;20200;-82
2024/01/14 04:02:14;;;;;;;39.72;16.90;;;;;;;0.06;81.73;98020.66;4239023;27;20231;-81
2024/01/14 04:04:19;;;;;;;47.90;17.73;;;;;;;0.00;82.65;98022.56;4238230;27;20264;-83
2024/01/14 04:06:23;;;;;;;48.35;18.63;;;;;;;0.02;82.50;98018.22;4251832;27;20199;-82
2024/01/14 04:08:27;;;;;;;43.85;19.00;;;;;;;0.04;82.55;98017.28;4235906;27;20211;-79
2024/01/14 04:10:30;;;;;;;49.15;16.80;;;;;;;0.06;82.56;98012.97;4254083;27;20199;-78
2024/01/14 04:12:33;;;;;;;42.90;17.52;;;;;;;0.05;82.99;98021.53;4238381;27;20322;-78
2024/01/14 04:14:37;;;;;;;43.78;18.08;;;;;;;0.07;82.35;98029.16;4225266;27;20220;-78
2024/01/14 04:16:41;;;;;;;44.13;17.42;;;;;;;0.10;82.82;98023.97;4223738;27;20200;-78
2024/01/14 04:18:45;;;;;;;44.13;18.20;;;;;;;0.13;83.07;98022.13;4255308;27;20195;-77
2024/01/14 04:20:50;;;;;;;47.08;17.15;;;;;;;0.16;82.82;98022.03;4258385;27;20222;-78
2024/01/14 04:22:54;;;;;;;42.10;16.75;;;;;;;0.16;82.42;98028.91;4256272;27;20203;-77
2024/01/14 04:24:58;;;;;;;46.40;18.42;;;;;;;0.16;83.20;98024.63;4216367;28;20224;-78
2024/01/14 04:27:00;;;;;;;42.55;17.80;;;;;;;0.13;83.07;98024.69;4223850;27;20890;-78
2024/01/14 04:29:04;;;;;;;44.20;18.55;;;;;;;0.14;82.82;98025.56;4255711;27;20199;-78
2024/01/14 04:31:09;;;;;;;42.53;17.13;;;;;;;0.15;83.54;98028.06;4250823;27;20199;-78
2024/01/14 04:33:12;;;;;;;46.42;18.25;;;;;;;0.17;83.34;98028.03;4250663;27;20211;-78
2024/01/14 04:35:16;;;;;;;43.45;17.67;;;;;;;0.18;82.86;98030.56;4217306;28;20301;-78
2024/01/14 04:37:20;;;;;;;45.70;18.67;;;;;;;0.19;83.11;98029.66;4234851;27;20680;-79
2024/01/14 04:39:23;;;;;;;50.90;18.10;;;;;;;0.21;83.31;98027.91;4237911;27;20219;-78
2024/01/14 04:41:26;;;;;;;44.47;18.58;;;;;;;0.21;83.05;98034.72;4222431;28;20223;-78
2024/01/14 04:43:30;;;;;;;43.80;17.95;;;;;;;0.22;83.40;98031.28;4252794;27;20611;-78
2024/01/14 04:45:34;;;;;;;47.92;19.30;;;;;;;0.23;83.51;98035.56;4238072;27;20780;-79
2024/01/14 04:47:38;;;;;;;51.72;18.30;;;;;;;0.24;82.97;98032.94;4245725;27;20252;-77
2024/01/14 04:49:40;;;;;;;41.03;17.25;;;;;;;0.23;83.43;98023.56;4235213;27;20202;-79
2024/01/14 04:51:43;;;;;;;41.90;17.60;;;;;;;0.23;83.29;98025.28;4236150;27;20981;-79
2024/01/14 04:53:48;;;;;;;43.22;16.98;;;;;;;0.22;83.48;98024.44;4222462;27;20279;-78
2024/01/14 04:55:52;;;;;;;38.50;15.95;;;;;;;0.25;83.52;98033.78;4239525;27;20192;-78
2024/01/14 04:57:55;;;;;;;44.63;17.40;;;;;;;0.23;83.56;98033.81;4214398;27;20253;-79
2024/01/14 04:59:59;;;;;;;43.63;17.20;;;;;;;0.25;83.80;98033.78;4238576;27;20200;-78
2024/01/14 05:02:02;;;;;;;48.80;19.30;;;;;;;0.25;83.63;98036.34;4236135;27;20622;-78
2024/01/14 05:04:06;;;;;;;45.63;17.00;;;;;;;0.26;83.77;98031.16;4255888;27;20206;-79
2024/01/14 05:06:10;;;;;;;50.85;18.77;;;;;;;0.27;84.07;98032.00;4248556;27;20722;-78
2024/01/14 05:08:13;;;;;;;40.15;17.33;;;;;;;0.26;84.45;98027.78;4236777;27;20611;-79
2024/01/14 05:10:18;;;;;;;50.97;20.08;;;;;;;0.28;84.42;98033.69;4234443;27;20200;-78
2024/01/14 05:12:21;;;;;;;43.38;17.23;;;;;;;0.27;84.60;98024.31;4218074;28;20200;-78
2024/01/14 05:14:24;;;;;;;45.60;16.38;;;;;;;0.28;84.40;98016.56;4220322;27;20271;-79
2024/01/14 05:16:28;;;;;;;43.30;16.70;;;;;;;0.31;84.21;98025.91;4253321;27;20690;-78
2024/01/14 05:18:30;;;;;;;53.22;17.08;;;;;;;0.33;84.24;98012.16;4256844;27;20351;-78
2024/01/14 05:20:33;;;;;;;46.67;17.65;;;;;;;0.27;84.66;98006.34;4214921;28;20205;-79
2024/01/14 05:22:36;;;;;;;43.30;17.42;;;;;;;0.20;85.08;97999.75;4232008;27;20202;-78
2024/01/14 05:24:42;;;;;;;48.50;17.45;;;;;;;0.18;85.06;98006.63;4253195;27;20570;-79
2024/01/14 05:26:47;;;;;;;48.38;17.58;;;;;;;0.22;84.72;98006.50;4256036;27;20660;-79
2024/01/14 05:28:50;;;;;;;39.20;16.40;;;;;;;0.21;85.26;98009.97;4219596;27;20196;-78
2024/01/14 05:30:53;;;;;;;44.97;17.23;;;;;;;0.23;85.30;98009.91;4248337;27;20203;-78
2024/01/14 05:32:56;;;;;;;43.47;15.82;;;;;;;0.24;85.50;98001.31;4217619;27;20320;-78
2024/01/14 05:35:00;;;;;;;43.80;16.70;;;;;;;0.21;85.44;97997.16;4238660;27;20199;-79
2024/01/14 05:37:03;;;;;;;42.20;16.27;;;;;;;0.16;85.12;97993.03;4232069;27;20199;-78
2024/01/14 05:39:06;;;;;;;50.35;16.55;;;;;;;0.16;85.50;97987.91;4250040;27;20255;-78
2024/01/14 05:41:12;;;;;;;47.72;16.80;;;;;;;0.19;85.43;97993.75;4252525;27;20203;-78
2024/01/14 05:43:17;;;;;;;40.95;15.23;;;;;;;0.19;85.75;97991.19;4250067;27;20216;-77
2024/01/14 05:45:20;;;;;;;47.63;17.35;;;;;;;0.16;85.76;97998.16;4230368;27;20226;-78
2024/01/14 05:47:23;;;;;;;50.55;17.45;;;;;;;0.15;85.69;98001.59;4230726;27;20214;-78
2024/01/14 05:49:26;;;;;;;53.40;18.27;;;;;;;0.10;85.71;97993.22;4252918;27;20256;-79
2024/01/14 05:51:30;;;;;;;44.90;17.13;;;;;;;0.09;85.55;97994.06;4236468;27;20884;-78
2024/01/14 05:53:33;;;;;;;52.45;18.20;;;;;;;0.02;85.70;97990.03;4231275;27;20224;-79
2024/01/14 05:55:36;;;;;;;50.45;17.75;;;;;;;0.01;85.81;97978.09;4232760;27;20841;-80
2024/01/14 05:57:39;;;;;;;44.20;17.17;;;;;;;-0.05;86.17;97988.53;4215522;27;20212;-78
2024/01/14 05:59:44;;;;;;;41.95;15.43;;;;;;;-0.09;86.08;97981.81;4236434;27;20680;-78
2024/01/14 06:01:47;;;;;;;44.25;16.65;;;;;;;-0.08;85.87;97980.91;4229424;27;20211;-78
2024/01/14 06:03:50;;;;;;;46.15;15.65;;;;;;;-0.19;85.97;97975.28;4237890;27;20666;-78
2024/01/14 06:05:53;;;;;;;49.97;17.50;;;;;;;-0.30;86.67;97974.75;4219742;28;20207;-78
2024/01/14 06:07:56;;;;;;;48.30;16.65;;;;;;;-0.33;86.53;97974.81;4251489;27;20198;-79
2024/01/14 06:10:00;;;;;;;42.38;15.75;;;;;;;-0.39;86.90;97969.88;4216367;28;20240;-81
2024/01/14 06:12:03;;;;;;;41.67;15.32;;;;;;;-0.40;87.00;97977.59;4236631;27;20286;-82
2024/01/14 06:14:07;;;;;;;39.70;16.08;;;;;;;-0.38;87.10;97975.81;4235796;27;20701;-82
2024/01/14 06:16:11;;;;;;;40.58;15.65;;;;;;;-0.33;87.03;97966.28;4213708;28;20227;-81
2024/01/14 06:18:14;;;;;;;38.63;16.27;;;;;;;-0.28;87.04;97978.09;4239956;27;20213;-81
2024/01/14 06:20:18;;;;;;;40.67;16.55;;;;;;;-0.29;86.73;97967.88;4231834;27;20617;-82
2024/01/14 06:22:21;;;;;;;40.38;15.70;;;;;;;-0.46;86.59;97965.78;4223521;28;20232;-84
2024/01/14 06:24:24;;;;;;;41.85;15.02;;;;;;;-0.56;86.86;97962.69;4222266;28;20203;-84
2024/01/14 06:26:27;;;;;;;38.83;16.00;;;;;;;-0.59;86.51;97965.34;4221004;28;20263;-84
2024/01/14 06:28:30;;;;;;;41.85;15.65;;;;;;;-0.64;86.91;97959.50;4215470;28;20647;-84
2024/01/14 06:30:33;;;;;;;48.95;17.98;;;;;;;-0.70;86.98;97959.69;4236600;27;20774;-84
2024/01/14 06:32:37;;;;;;;50.78;16.52;;;;;;;-0.70;87.07;97954.56;4253616;27;20208;-85
2024/01/14 06:34:42;;;;;;;46.38;17.60;;;;;;;-0.82;87.38;97949.75;4235525;27;20248;-84
2024/01/14 06:36:44;;;;;;;45.95;19.45;;;;;;;-0.91;87.79;97948.28;4238720;27;20713;-84
2024/01/14 06:38:47;;;;;;;53.58;20.25;;;;;;;-0.93;87.75;97942.38;4248280;27;20779;-84
2024/01/14 06:40:50;;;;;;;44.30;17.65;;;;;;;-0.91;87.68;97940.59;4221421;28;20208;-85
2024/01/14 06:43:11;;;;;;;52.55;17.52;;;;;;;-0.83;87.83;97943.81;4234908;27;20226;-84
2024/01/14 06:45:15;;;;;;;43.33;18.17;;;;;;;-0.85;87.75;97939.59;4217671;28;20200;-84
2024/01/14 06:47:17;;;;;;;54.53;19.63;;;;;;;-0.85;87.85;97940.44;4256320;27;21345;-85
2024/01/14 06:49:21;;;;;;;44.63;19.80;;;;;;;-0.83;87.54;97938.69;4235987;27;20200;-85
2024/01/14 06:51:25;;;;;;;46.30;18.85;;;;;;;-0.82;87.65;97929.28;4250955;27;20210;-84
2024/01/14 06:53:28;;;;;;;49.63;18.70;;;;;;;-0.90;87.64;97926.09;4235787;27;20203;-85
2024/01/14 06:55:31;;;;;;;44.30;17.48;;;;;;;-0.95;87.42;97914.31;4223984;27;20300;-85
2024/01/14 06:57:34;;;;;;;52.83;17.85;;;;;;;-1.03;87.49;97918.78;4221126;27;20578;-85
2024/01/14 06:59:39;;;;;;;46.20;17.95;;;;;;;-1.08;88.00;97915.50;4250973;27;20199;-84
2024/01/14 07:01:42;;;;;;;39.75;17.60;;;;;;;-1.08;88.22;97910.38;4255849;27;20200;-84
2024/01/14 07:03:46;;;;;;;53.85;20.35;;;;;;;-1.17;88.56;97906.34;4240293;27;20202;-85
2024/01/14 07:05:51;;;;;;;44.58;17.13;;;;;;;-1.15;88.69;97909.69;4251598;27;20768;-85
2024/01/14 07:07:54;;;;;;;48.40;17.98;;;;;;;-1.09;88.72;97908.72;4237260;27;20211;-85
2024/01/14 07:09:57;;;;;;;61.45;21.20;;;;;;;-1.00;88.59;97906.75;4255328;27;20207;-85
2024/01/14 07:12:00;;;;;;;50.25;18.48;;;;;;;-1.01;88.22;97904.22;4237728;27;20212;-84
2024/01/14 07:14:03;;;;;;;48.60;20.02;;;;;;;-1.04;88.49;97904.31;4253779;27;20745;-84
2024/01/14 07:16:07;;;;;;;46.95;19.92;;;;;;;-1.09;88.95;97901.88;4232379;27;20665;-85
2024/01/14 07:18:11;;;;;;;54.35;19.30;;;;;;;-1.14;88.75;97895.19;4239916;27;20200;-84
2024/01/14 07:20:17;;;;;;;52.58;19.23;;;;;;;-1.19;89.13;97894.47;4220192;27;20205;-85
2024/01/14 07:22:22;;;;;;;46.30;18.67;;;;;;;-1.21;89.22;97891.97;4254795;27;20214;-84
2024/01/14 07:24:25;;;;;;;53.08;20.15;;;;;;;-1.26;89.66;97888.69;4247219;27;20214;-85
2024/01/14 07:26:28;;;;;;;48.22;17.55;;;;;;;-1.24;89.76;97878.44;4234225;27;20207;-84
2024/01/14 07:28:31;;;;;;;46.28;19.63;;;;;;;-1.26;89.81;97896.38;4239735;27;20684;-84
2024/01/14 07:30:34;;;;;;;41.75;17.20;;;;;;;-1.24;89.79;97894.59;4233978;27;20237;-84
2024/01/14 07:32:37;;;;;;;51.00;19.38;;;;;;;-1.20;89.63;97896.19;4221974;27;20196;-81
2024/01/14 07:34:41;;;;;;;52.95;18.30;;;;;;;-1.25;89.80;97879.28;4232521;27;20256;-81
2024/01/14 07:36:44;;;;;;;45.85;18.08;;;;;;;-1.27;89.45;97881.06;4241543;27;20206;-81
2024/01/14 07:38:51;;;;;;;49.03;18.42;;;;;;;-1.30;89.82;97879.41;4234588;27;20208;-81
2024/01/14 07:40:54;;;;;;;42.58;16.42;;;;;;;-1.27;89.64;97875.94;4235210;27;20830;-82
2024/01/14 07:42:57;;;;;;;40.22;16.25;;;;;;;-1.25;89.23;97877.59;4245992;27;20271;-81
2024/01/14 07:45:02;;;;;;;39.85;15.77;;;;;;;-1.18;89.16;97883.38;4217026;27;20196;-82
2024/01/14 07:47:06;;;;;;;39.97;15.77;;;;;;;-1.10;88.79;97887.41;4252020;27;20716;-82
2024/01/14 07:49:11;;;;;;;44.30;16.00;;;;;;;-1.15;88.58;97889.25;4222618;27;20204;-81
2024/01/14 07:51:15;;;;;;;45.47;15.15;;;;;;;-1.20;88.77;97885.97;4228800;27;20200;-81
2024/01/14 07:53:18;;;;;;;37.47;14.25;;;;;;;-1.17;88.88;97885.91;4254222;27;20211;-80
2024/01/14 07:55:23;;;;;;;41.22;15.88;;;;;;;-1.08;88.60;97890.78;4237836;27;20233;-80
2024/01/14 07:57:26;;;;;;;36.22;14.32;;;;;;;-1.12;88.42;97886.59;4252191;27;20286;-81
2024/01/14 07:59:29;;;;;;;40.70;15.13;;;;;;;-1.09;88.26;97894.19;4234503;27;20215;-82
2024/01/14 08:01:35;;;;;;;40.10;16.30;;;;;;;-1.10;88.26;97889.94;4236239;27;20211;-81
2024/01/14 08:03:38;;;;;;;38.88;15.50;;;;;;;-1.10;87.84;97887.41;4235102;27;20241;-81
2024/01/14 08:05:42;;;;;;;39.40;15.40;;;;;;;-1.05;87.81;97884.72;4221539;28;20196;-82
2024/01/14 08:07:45;;;;;;;32.63;13.68;;;;;;;-0.99;87.66;97879.44;4255124;27;20205;-81
2024/01/14 08:09:48;;;;;;;34.50;14.20;;;;;;;-1.01;87.45;97876.91;4239774;27;20200;-81
2024/01/14 08:11:52;;;;;;;33.28;14.27;;;;;;;-0.99;87.19;97882.84;4231097;27;20207;-82
2024/01/14 08:13:57;;;;;;;33.33;13.80;;;;;;;-0.96;87.00;97877.66;4254585;27;20227;-81
2024/01/14 08:16:00;;;;;;;48.53;17.15;;;;;;;-0.96;86.48;97880.22;4235841;27;20680;-80
2024/01/14 08:18:04;;;;;;;43.97;16.20;;;;;;;-0.94;86.68;97870.78;4252197;27;20256;-81
2024/01/14 08:20:10;;;;;;;42.33;16.17;;;;;;;-0.91;86.46;97874.06;4239888;27;20195;-81
2024/01/14 08:22:17;;;;;;;45.00;16.25;;;;;;;-0.84;86.50;97880.72;4221703;27;20224;-83
2024/01/14 08:24:20;;;;;;;41.75;16.23;;;;;;;-0.75;86.80;97882.16;4254671;27;20188;-81
2024/01/14 08:26:23;;;;;;;40.55;17.10;;;;;;;-0.73;86.70;97885.53;4219176;27;20239;-82
2024/01/14 08:28:29;;;;;;;42.13;16.17;;;;;;;-0.70;86.11;97878.59;4232477;27;20219;-80
2024/01/14 08:30:32;;;;;;;37.55;15.23;;;;;;;-0.82;85.66;97878.13;4235174;27;20207;-81
2024/01/14 08:32:36;;;;;;;39.08;16.13;;;;;;;-0.80;86.00;97876.34;4237825;27;20252;-81
2024/01/14 08:34:39;;;;;;;41.80;16.80;;;;;;;-0.83;86.05;97886.66;4222818;27;20202;-82
2024/01/14 08:36:42;;;;;;;35.95;15.25;;;;;;;-0.87;86.17;97880.81;4236447;27;20195;-82
2024/01/14 08:38:46;;;;;;;45.42;17.52;;;;;;;-0.89;85.93;97882.56;4238028;27;21024;-81
2024/01/14 08:40:49;;;;;;;39.47;16.13;;;;;;;-0.86;86.01;97884.19;4250383;27;20203;-81
2024/01/14 08:42:52;;;;;;;37.47;16.98;;;;;;;-0.86;85.89;97881.63;4238749;27;20203;-81
2024/01/14 08:44:57;;;;;;;43.63;17.08;;;;;;;-0.79;85.93;97876.31;4237482;27;20199;-80
2024/01/14 08:46:59;;;;;;;44.13;17.13;;;;;;;-0.73;85.70;97872.75;4237002;27;20842;-82
2024/01/14 08:49:02;;;;;;;38.75;17.83;;;;;;;-0.72;85.57;97876.97;4253716;27;20285;-81
2024/01/14 08:51:06;;;;;;;42.00;17.17;;;;;;;-0.63;85.80;97877.56;4239779;27;20207;-82
2024/01/14 08:53:09;;;;;;;36.45;15.05;;;;;;;-0.67;85.23;97875.97;4229269;27;20211;-81
2024/01/14 08:55:11;;;;;;;40.28;15.70;;;;;;;-0.66;85.13;97871.66;4237321;27;20261;-81
2024/01/14 08:57:15;;;;;;;42.47;16.40;;;;;;;-0.71;84.50;97869.25;4234559;27;20672;-80
2024/01/14 08:59:19;;;;;;;38.80;15.98;;;;;;;-0.71;84.64;97861.56;4232441;27;20633;-82
2024/01/14 09:01:24;;;;;;;44.58;15.50;;;;;;;-0.73;84.56;97857.38;4260161;27;20233;-81
2024/01/14 09:03:27;;;;;;;38.78;16.55;;;;;;;-0.74;84.50;97855.69;4240662;27;20263;-81
2024/01/14 09:05:30;;;;;;;38.50;16.80;;;;;;;-0.73;84.51;97855.66;4231539;27;20196;-81
2024/01/14 09:07:34;;;;;;;38.85;17.27;;;;;;;-0.72;85.04;97864.16;4234058;27;20195;-82
2024/01/14 09:09:37;;;;;;;43.90;16.80;;;;;;;-0.65;84.85;97858.00;4252898;27;20690;-81
2024/01/14 09:11:40;;;;;;;41.75;16.30;;;;;;;-0.60;85.26;97858.69;4231361;27;20589;-82
2024/01/14 09:13:45;;;;;;;41.78;16.95;;;;;;;-0.51;84.70;97864.41;4237580;27;20203;-81
2024/01/14 09:15:48;;;;;;;36.40;15.68;;;;;;;-0.47;84.57;97861.72;4238908;27;20661;-81
2024/01/14 09:17:53;;;;;;;43.58;16.63;;;;;;;-0.37;84.51;97855.44;4227033;27;20271;-82
2024/01/14 09:19:57;;;;;;;40.55;16.70;;;;;;;-0.28;84.05;97852.59;4252013;27;20651;-81
2024/01/14 09:22:00;;;;;;;36.10;15.85;;;;;;;-0.18;83.88;97853.16;4237196;27;20366;-81
2024/01/14 09:24:03;;;;;;;37.88;17.23;;;;;;;-0.08;83.84;97855.38;4234702;27;21114;-80
2024/01/14 09:26:06;;;;;;;38.38;16.10;;;;;;;0.03;83.09;97853.31;4249708;27;20205;-83
2024/01/14 09:28:09;;;;;;;41.28;16.25;;;;;;;0.03;82.43;97858.44;4232850;27;20200;-82
2024/01/14 09:30:13;;;;;;;36.33;15.68;;;;;;;0.03;82.54;97861.88;4254944;27;20656;-83
2024/01/14 09:32:16;;;;;;;41.58;17.00;;;;;;;-0.06;82.01;97848.50;4232896;27;20238;-84